Time;durP1;ratioP1;P1;durP2;ratioP2;P2;SDS_P1;SDS_P2;PMS_P1;PMS_P2;Temp;Humidity;BMP_temperature;BMP_pressure;BME280_temperature;BME280_humidity;BME280_pressure;Samples;Min_cycle;Max_cycle;Signal;HPM_P1;HPM_P2
2023/07/03 00:00:00;;;;;;;22.95;17.85;;;;;;;18.91;100.00;63952.97;5061725;28;20203;-77
2023/07/03 00:02:27;;;;;;;19.35;17.45;;;;;;;18.96;100.00;63969.03;5061440;28;20522;-79
2023/07/03 00:04:55;;;;;;;20.63;18.48;;;;;;;18.98;100.00;63962.84;5049772;28;20237;-80
2023/07/03 00:07:21;;;;;;;18.67;16.67;;;;;;;18.96;100.00;63961.28;5047610;28;20284;-78
2023/07/03 00:09:49;;;;;;;19.90;17.90;;;;;;;18.93;100.00;63957.66;5052376;28;20212;-80
2023/07/03 00:12:16;;;;;;;20.90;18.60;;;;;;;18.91;100.00;63956.09;5062316;28;20216;-77
2023/07/03 00:14:45;;;;;;;20.15;17.95;;;;;;;18.94;100.00;63958.69;5053003;28;20224;-78
2023/07/03 00:17:12;;;;;;;20.27;18.25;;;;;;;18.82;100.00;63948.75;5057494;28;20571;-79
2023/07/03 00:19:39;;;;;;;20.73;18.52;;;;;;;18.82;100.00;63949.28;5065992;28;20205;-78
2023/07/03 00:22:06;;;;;;;20.20;17.98;;;;;;;18.87;100.00;63953.97;5053624;28;20405;-79
2023/07/03 00:24:33;;;;;;;21.77;19.38;;;;;;;18.86;100.00;63950.34;5056371;28;20526;-78
2023/07/03 00:27:01;;;;;;;20.63;18.45;;;;;;;18.78;100.00;63944.56;5066863;28;20286;-78
2023/07/03 00:29:31;;;;;;;20.98;18.77;;;;;;;18.81;100.00;63943.06;5052153;28;20235;-78
2023/07/03 00:31:59;;;;;;;22.90;18.92;;;;;;;18.84;100.00;63950.84;5055765;28;20655;-79
2023/07/03 00:34:27;;;;;;;20.65;18.42;;;;;;;18.86;100.00;63950.84;5052396;28;20212;-79
2023/07/03 00:36:55;;;;;;;18.90;17.00;;;;;;;18.83;100.00;63942.56;5055306;28;20398;-76
2023/07/03 00:39:22;;;;;;;19.88;17.77;;;;;;;18.80;100.00;63944.59;5062461;28;20272;-79
2023/07/03 00:41:49;;;;;;;19.33;17.33;;;;;;;18.81;100.00;63948.22;5081440;28;20596;-81
2023/07/03 00:44:17;;;;;;;19.10;16.95;;;;;;;18.76;100.00;63940.44;5064844;28;20211;-78
2023/07/03 00:46:48;;;;;;;20.25;18.02;;;;;;;18.76;100.00;63942.50;5053413;28;20555;-78
2023/07/03 00:49:20;;;;;;;20.92;18.73;;;;;;;18.74;100.00;63938.34;5063521;28;20268;-77
2023/07/03 00:51:51;;;;;;;21.70;18.48;;;;;;;18.73;100.00;63936.78;5049905;28;20716;-79
2023/07/03 00:54:19;;;;;;;21.05;18.77;;;;;;;18.73;100.00;63934.72;5050545;28;20197;-79
2023/07/03 00:56:46;;;;;;;21.20;18.95;;;;;;;18.71;100.00;63934.69;5054604;28;20252;-75
2023/07/03 00:59:13;;;;;;;22.08;19.13;;;;;;;18.72;100.00;63935.75;5059313;28;20208;-78
2023/07/03 01:01:46;;;;;;;21.35;18.77;;;;;;;18.72;100.00;63938.31;5056062;28;20405;-76
2023/07/03 01:04:20;;;;;;;20.80;18.55;;;;;;;18.70;100.00;63931.59;5052638;28;20242;-79
2023/07/03 01:06:54;;;;;;;20.52;18.35;;;;;;;18.70;100.00;63933.66;5056306;28;20229;-78
2023/07/03 01:09:24;;;;;;;21.17;18.88;;;;;;;18.69;100.00;63927.47;5055333;28;20247;-78
2023/07/03 01:11:52;;;;;;;21.13;18.85;;;;;;;18.75;100.00;63941.44;5054107;28;20229;-79
2023/07/03 01:14:23;;;;;;;22.77;20.20;;;;;;;18.76;100.00;63940.44;5061434;28;20524;-79
2023/07/03 01:16:50;;;;;;;23.00;20.38;;;;;;;18.80;100.00;63947.19;5056520;28;20259;-78
2023/07/03 01:19:29;;;;;;;22.33;19.60;;;;;;;18.79;100.00;63946.16;5048059;28;20205;-80
2023/07/03 01:21:59;;;;;;;25.08;19.77;;;;;;;18.78;100.00;63942.53;5048701;28;20233;-77
2023/07/03 01:24:36;;;;;;;22.27;18.67;;;;;;;18.76;100.00;63937.34;5065568;28;20710;-79
2023/07/03 01:27:06;;;;;;;21.85;19.17;;;;;;;18.76;100.00;63942.50;5050060;28;20228;-78
2023/07/03 01:29:37;;;;;;;24.88;21.00;;;;;;;18.77;100.00;63943.53;5049365;28;20197;-78
2023/07/03 01:32:09;;;;;;;22.13;19.67;;;;;;;18.73;100.00;63936.78;5052226;28;20232;-77
2023/07/03 01:34:38;;;;;;;26.42;19.35;;;;;;;18.76;100.00;63937.84;5053746;28;20202;-78
2023/07/03 01:37:06;;;;;;;23.73;20.80;;;;;;;18.79;100.00;63948.22;5059741;28;20525;-78
2023/07/03 01:39:36;;;;;;;22.42;19.40;;;;;;;18.76;100.00;63942.50;5049227;28;20232;-78
2023/07/03 01:42:05;;;;;;;22.88;19.88;;;;;;;18.80;100.00;63941.50;5058765;28;20228;-79
2023/07/03 01:44:31;;;;;;;22.48;19.65;;;;;;;18.75;100.00;63941.44;5053503;28;20196;-79
2023/07/03 01:47:05;;;;;;;24.10;20.95;;;;;;;18.65;100.00;63928.97;5055752;28;20225;-78
2023/07/03 01:49:32;;;;;;;21.60;18.92;;;;;;;18.68;100.00;63929.53;5058737;28;20214;-79
2023/07/03 01:52:06;;;;;;;24.40;19.35;;;;;;;18.69;100.00;63932.63;5068363;28;20225;-78
2023/07/03 01:54:42;;;;;;;21.58;19.27;;;;;;;18.63;100.00;63923.78;5048235;28;20433;-79
2023/07/03 01:57:15;;;;;;;23.05;20.13;;;;;;;18.69;100.00;63938.28;5049045;28;20228;-79
2023/07/03 01:59:42;;;;;;;24.23;20.13;;;;;;;18.70;100.00;63931.59;5067014;28;20215;-79
2023/07/03 02:02:15;;;;;;;22.58;19.00;;;;;;;18.67;100.00;63936.22;5063060;28;20267;-78
2023/07/03 02:04:50;;;;;;;23.13;20.38;;;;;;;18.70;100.00;63931.59;5067494;28;20239;-78
2023/07/03 02:07:18;;;;;;;22.92;19.52;;;;;;;18.69;100.00;63933.13;5065611;28;20231;-77
2023/07/03 02:09:47;;;;;;;23.60;19.35;;;;;;;18.70;100.00;63928.50;5057647;28;20244;-79
2023/07/03 02:12:14;;;;;;;23.92;19.67;;;;;;;18.71;100.00;63937.81;5058078;28;20259;-78
2023/07/03 02:14:41;;;;;;;24.35;20.27;;;;;;;18.73;100.00;63936.78;5050798;28;20197;-81
2023/07/03 02:17:08;;;;;;;23.73;19.58;;;;;;;18.71;100.00;63934.69;5059387;28;20553;-78
2023/07/03 02:19:35;;;;;;;20.70;18.52;;;;;;;18.70;100.00;63931.09;5062847;28;20198;-80
2023/07/03 02:22:03;;;;;;;20.38;18.27;;;;;;;18.72;100.00;63936.28;5047009;28;20248;-78
2023/07/03 02:24:30;;;;;;;22.20;18.00;;;;;;;18.73;100.00;63942.47;5047691;28;20201;-78
2023/07/03 02:26:58;;;;;;;20.15;17.13;;;;;;;18.72;100.00;63930.59;5062482;28;20243;-76
2023/07/03 02:29:26;;;;;;;22.73;18.73;;;;;;;18.74;100.00;63940.41;5066283;28;20207;-79
2023/07/03 02:31:53;;;;;;;22.17;18.88;;;;;;;18.73;100.00;63932.16;5063684;28;20256;-78
2023/07/03 02:34:21;;;;;;;21.95;19.13;;;;;;;18.75;100.00;63944.56;5048369;28;20209;-79
2023/07/03 02:36:49;;;;;;;21.27;18.00;;;;;;;18.75;100.00;63941.97;5068172;28;20223;-78
2023/07/03 02:39:16;;;;;;;22.02;17.85;;;;;;;18.74;100.00;63940.41;5065129;28;20209;-79
2023/07/03 02:41:43;;;;;;;22.13;17.60;;;;;;;18.83;100.00;63945.16;5061935;28;20231;-79
2023/07/03 02:44:11;;;;;;;22.15;16.98;;;;;;;18.89;100.00;63956.56;5057702;28;20239;-78
2023/07/03 02:46:41;;;;;;;21.20;17.27;;;;;;;18.96;100.00;63961.28;5051173;28;20300;-78
2023/07/03 02:49:08;;;;;;;19.77;17.10;;;;;;;18.91;100.00;63958.13;5054294;28;20204;-78
2023/07/03 02:51:35;;;;;;;19.92;17.13;;;;;;;18.86;100.00;63950.84;5062607;28;20221;-79
2023/07/03 02:54:04;;;;;;;20.80;17.42;;;;;;;18.80;100.00;63944.06;5064691;28;20209;-79
2023/07/03 02:56:31;;;;;;;22.35;17.98;;;;;;;18.80;100.00;63944.06;5062267;28;20267;-76
2023/07/03 02:58:58;;;;;;;20.45;17.25;;;;;;;18.84;100.00;63948.25;5062918;28;20213;-78
2023/07/03 03:01:26;;;;;;;19.67;17.10;;;;;;;18.89;100.00;63950.88;5062558;28;20224;-79
2023/07/03 03:03:53;;;;;;;23.50;18.60;;;;;;;18.91;100.00;63950.91;5060548;28;20212;-77
2023/07/03 03:06:20;;;;;;;26.85;18.45;;;;;;;18.86;100.00;63952.94;5058356;28;20236;-78
2023/07/03 03:08:48;;;;;;;21.77;18.33;;;;;;;18.86;100.00;63947.75;5058956;28;20197;-78
2023/07/03 03:11:16;;;;;;;18.75;16.73;;;;;;;18.87;100.00;63949.31;5054597;28;20272;-77
2023/07/03 03:13:44;;;;;;;24.02;18.10;;;;;;;18.88;100.00;63950.34;5047834;28;20205;-80
2023/07/03 03:16:10;;;;;;;24.85;18.92;;;;;;;18.94;100.00;63958.69;5047251;28;20292;-78
2023/07/03 03:18:39;;;;;;;23.58;18.38;;;;;;;18.96;100.00;63963.88;5047581;28;20239;-76
2023/07/03 03:21:06;;;;;;;19.75;17.63;;;;;;;18.93;100.00;63958.16;5063202;28;20239;-79
2023/07/03 03:23:33;;;;;;;22.88;18.75;;;;;;;18.93;100.00;63957.66;5057232;28;20207;-78
2023/07/03 03:26:00;;;;;;;19.35;17.25;;;;;;;18.96;100.00;63963.34;5053803;28;20251;-77
2023/07/03 03:28:27;;;;;;;20.80;17.90;;;;;;;18.95;100.00;63960.25;5064228;28;20204;-78
2023/07/03 03:30:54;;;;;;;20.13;17.52;;;;;;;18.90;100.00;63949.34;5045165;28;20217;-78
2023/07/03 03:33:21;;;;;;;23.67;18.95;;;;;;;18.94;100.00;63961.25;5048422;28;20213;-78
2023/07/03 03:35:50;;;;;;;20.52;17.02;;;;;;;18.81;100.00;63945.63;5046432;28;20277;-77
2023/07/03 03:38:17;;;;;;;22.92;18.67;;;;;;;18.84;100.00;63948.78;5057248;28;20259;-78
2023/07/03 03:40:54;;;;;;;21.83;18.52;;;;;;;18.89;100.00;63959.16;5063263;28;20224;-79
2023/07/03 03:43:21;;;;;;;21.45;18.27;;;;;;;18.99;100.00;63966.47;5045498;28;20219;-78
2023/07/03 03:45:54;;;;;;;21.33;18.10;;;;;;;18.83;100.00;63952.88;5048069;28;20239;-79
2023/07/03 03:48:21;;;;;;;22.73;19.23;;;;;;;18.86;100.00;63950.34;5058268;28;20399;-79
2023/07/03 03:50:50;;;;;;;22.20;18.98;;;;;;;18.86;100.00;63952.94;5048515;28;20348;-80
2023/07/03 03:53:18;;;;;;;23.08;19.08;;;;;;;18.90;100.00;63951.91;5046062;28;20213;-76
2023/07/03 03:55:48;;;;;;;22.55;18.02;;;;;;;18.93;100.00;63957.66;5061086;28;20228;-78
2023/07/03 03:58:16;;;;;;;20.38;18.10;;;;;;;18.91;100.00;63953.50;5059441;28;20240;-78
2023/07/03 04:00:43;;;;;;;20.60;17.00;;;;;;;18.82;100.00;63949.28;5054069;28;20223;-76
2023/07/03 04:03:10;;;;;;;22.75;19.33;;;;;;;18.74;100.00;63940.41;5048136;28;20213;-79
2023/07/03 04:05:38;;;;;;;20.92;18.63;;;;;;;18.75;100.00;63934.25;5056365;28;20291;-79
2023/07/03 04:08:06;;;;;;;24.75;18.73;;;;;;;18.68;100.00;63934.16;5051202;28;20206;-77
2023/07/03 04:10:33;;;;;;;23.48;19.20;;;;;;;18.64;100.00;63927.41;5056433;28;20236;-76
2023/07/03 04:13:00;;;;;;;21.50;17.77;;;;;;;18.75;100.00;63944.03;5070443;28;20417;-78
2023/07/03 04:15:32;;;;;;;21.65;18.60;;;;;;;18.77;100.00;63940.97;5046422;28;20387;-76
2023/07/03 04:17:59;;;;;;;22.60;19.10;;;;;;;18.78;100.00;63944.56;5045276;28;20420;-78
2023/07/03 04:20:26;;;;;;;24.85;19.02;;;;;;;18.76;100.00;63945.59;5048014;28;20205;-80
2023/07/03 04:22:54;;;;;;;23.20;18.67;;;;;;;18.82;100.00;63949.28;5048257;28;20201;-80
2023/07/03 04:25:23;;;;;;;20.83;17.60;;;;;;;18.88;100.00;63955.53;5062467;28;20197;-78
2023/07/03 04:27:50;;;;;;;24.58;18.05;;;;;;;18.91;100.00;63956.09;5057095;28;20224;-78
2023/07/03 04:30:18;;;;;;;21.35;17.73;;;;;;;19.05;100.00;63970.16;5068342;28;20205;-78
2023/07/03 04:32:53;;;;;;;22.65;17.73;;;;;;;19.05;100.00;63970.16;5047617;28;20261;-79
2023/07/03 04:35:20;;;;;;;21.27;17.05;;;;;;;19.00;100.00;63962.88;5053481;28;20197;-77
2023/07/03 04:37:47;;;;;;;21.83;17.55;;;;;;;18.96;100.00;63958.19;5053223;28;20197;-79
2023/07/03 04:40:15;;;;;;;23.05;18.90;;;;;;;19.07;100.00;63972.25;5060849;28;20520;-80
2023/07/03 04:42:44;;;;;;;21.08;17.67;;;;;;;19.15;100.00;63983.69;5048455;28;20198;-78
2023/07/03 04:45:13;;;;;;;21.20;17.08;;;;;;;19.21;100.00;63984.25;5049255;28;20198;-80
2023/07/03 04:47:41;;;;;;;20.67;17.10;;;;;;;19.26;100.00;63989.97;5051060;28;20233;-77
2023/07/03 04:50:10;;;;;;;18.77;15.48;;;;;;;19.12;100.00;63980.53;5047022;28;20211;-78
2023/07/03 04:52:38;;;;;;;19.50;16.92;;;;;;;19.03;100.00;63963.44;5050619;28;20210;-79
2023/07/03 04:55:06;;;;;;;26.95;15.73;;;;;;;18.99;100.00;63964.41;5052435;28;20200;-76
2023/07/03 04:57:33;;;;;;;21.27;17.35;;;;;;;19.16;100.00;63979.56;5049985;28;20237;-81
2023/07/03 05:00:03;;;;;;;19.23;16.33;;;;;;;19.34;100.00;64000.94;5055150;28;20261;-79
2023/07/03 05:02:31;;;;;;;19.52;16.38;;;;;;;19.48;100.00;64018.09;5048952;28;20280;-79
2023/07/03 05:04:59;;;;;;;18.30;15.95;;;;;;;19.60;100.00;64027.53;5050502;28;20201;-79
2023/07/03 05:07:26;;;;;;;14.60;13.10;;;;;;;19.54;100.00;64026.94;5048757;28;20245;-76
2023/07/03 05:09:53;;;;;;;22.83;16.15;;;;;;;19.81;100.00;64049.41;5068519;28;20207;-80
2023/07/03 05:12:20;;;;;;;16.83;15.00;;;;;;;19.79;100.00;64046.81;5058321;28;20263;-77
2023/07/03 05:14:47;;;;;;;19.98;15.18;;;;;;;19.99;100.00;64067.69;5053370;28;20265;-79
2023/07/03 05:17:16;;;;;;;17.70;15.10;;;;;;;20.20;100.00;64090.16;5059278;28;20221;-78
2023/07/03 05:19:43;;;;;;;17.60;15.20;;;;;;;20.24;100.00;64096.38;5051661;28;20213;-79
2023/07/03 05:22:10;;;;;;;16.70;14.48;;;;;;;20.01;100.00;64070.28;5050714;28;20580;-78
2023/07/03 05:24:37;;;;;;;16.25;14.10;;;;;;;20.22;100.00;64094.28;5055824;28;20287;-77
2023/07/03 05:27:05;;;;;;;16.45;14.63;;;;;;;20.38;100.00;64108.91;5057595;28;20268;-78
2023/07/03 05:29:33;;;;;;;15.40;13.80;;;;;;;20.50;100.00;64124.03;5069760;28;20205;-76
2023/07/03 05:32:00;;;;;;;15.45;13.85;;;;;;;20.43;100.00;64116.72;5050286;28;20221;-77
2023/07/03 05:34:29;;;;;;;16.33;14.10;;;;;;;20.39;100.00;64109.44;5063756;28;20209;-80
2023/07/03 05:36:58;;;;;;;18.02;14.85;;;;;;;20.63;100.00;64135.03;5057079;28;20533;-79
2023/07/03 05:39:25;;;;;;;16.48;14.55;;;;;;;20.54;100.00;64125.63;5057982;28;20288;-78
2023/07/03 05:41:53;;;;;;;14.48;13.07;;;;;;;20.56;100.00;64129.78;5069260;28;20220;-79
2023/07/03 05:44:20;;;;;;;15.98;13.93;;;;;;;20.55;100.00;64121.47;5063161;28;20236;-77
2023/07/03 05:46:47;;;;;;;16.80;14.80;;;;;;;20.63;100.00;64135.03;5063014;28;20228;-78
2023/07/03 05:49:14;;;;;;;15.80;13.82;;;;;;;20.86;100.00;64155.94;5067678;28;20205;-80
2023/07/03 05:51:42;;;;;;;15.57;13.70;;;;;;;20.79;100.00;64148.63;5055881;28;20243;-76
2023/07/03 05:54:10;;;;;;;18.13;14.68;;;;;;;20.75;100.00;64147.03;5054770;28;20199;-79
2023/07/03 05:56:37;;;;;;;19.83;14.38;;;;;;;20.80;100.00;64149.66;5056415;28;20217;-77
2023/07/03 05:59:04;;;;;;;14.55;12.98;;;;;;;20.73;100.00;64150.09;5049243;28;20208;-80
2023/07/03 06:01:31;;;;;;;15.48;13.98;;;;;;;20.60;100.00;64137.06;5052390;28;20233;-79
2023/07/03 06:03:58;;;;;;;21.38;14.55;;;;;;;20.89;100.00;64158.53;5068359;28;20201;-81
2023/07/03 06:06:26;;;;;;;16.67;13.88;;;;;;;21.12;100.00;64185.66;5049014;28;20232;-78
2023/07/03 06:08:54;;;;;;;18.00;14.77;;;;;;;21.31;100.00;64205.00;5051185;28;20198;-79
2023/07/03 06:11:21;;;;;;;15.80;13.82;;;;;;;21.36;100.00;64205.03;5064623;28;20224;-77
2023/07/03 06:13:48;;;;;;;14.75;13.07;;;;;;;21.32;100.00;64203.44;5067763;28;20205;-77
2023/07/03 06:16:15;;;;;;;15.23;13.65;;;;;;;21.44;100.00;64221.16;5054977;28;20415;-79
2023/07/03 06:18:42;;;;;;;15.93;13.85;;;;;;;21.46;100.00;64223.25;5052231;28;20284;-80
2023/07/03 06:21:09;;;;;;;15.93;13.95;;;;;;;21.57;100.00;64232.66;5058027;28;20223;-81
2023/07/03 06:23:36;;;;;;;14.77;13.32;;;;;;;21.74;100.00;64249.91;5063399;28;20238;-79
2023/07/03 06:26:04;;;;;;;15.57;14.05;;;;;;;21.73;100.00;64246.28;5058014;28;20229;-77
2023/07/03 06:28:31;;;;;;;15.07;13.50;;;;;;;21.72;100.00;64250.41;5058717;28;20207;-77
2023/07/03 06:30:58;;;;;;;14.63;13.25;;;;;;;21.75;100.00;64256.16;5046299;28;20217;-77
2023/07/03 06:33:26;;;;;;;17.27;13.38;;;;;;;21.89;100.00;64268.19;5052576;28;20362;-79
2023/07/03 06:35:53;;;;;;;14.55;12.93;;;;;;;21.90;100.00;64269.25;5059348;28;20221;-79
2023/07/03 06:38:20;;;;;;;13.57;12.25;;;;;;;22.16;100.00;64288.63;5047585;28;20242;-77
2023/07/03 06:40:56;;;;;;;14.48;12.48;;;;;;;22.00;100.00;64281.78;5058530;28;20279;-77
2023/07/03 06:43:24;;;;;;;13.32;11.93;;;;;;;21.92;100.00;64270.81;5067989;28;20208;-78
2023/07/03 06:45:51;;;;;;;14.43;12.68;;;;;;;21.95;100.00;64269.28;5049855;28;20229;-79
2023/07/03 06:48:18;;;;;;;16.33;13.40;;;;;;;21.89;100.00;64265.59;5048894;28;20501;-78
2023/07/03 06:50:46;;;;;;;15.52;13.02;;;;;;;21.62;100.00;64240.47;5052396;28;20236;-77
2023/07/03 06:53:13;;;;;;;14.00;12.60;;;;;;;21.65;100.00;64241.03;5066844;28;20197;-78
2023/07/03 06:55:40;;;;;;;15.23;12.93;;;;;;;21.75;100.00;64254.09;5047984;28;20255;-77
2023/07/03 06:58:07;;;;;;;14.40;13.00;;;;;;;21.63;100.00;64236.34;5066356;28;20212;-77
2023/07/03 07:00:36;;;;;;;19.67;14.13;;;;;;;21.91;100.00;64267.19;5060860;28;20303;-79
2023/07/03 07:03:03;;;;;;;15.77;13.65;;;;;;;21.91;100.00;64269.78;5056220;28;20201;-76
2023/07/03 07:05:30;;;;;;;16.92;14.27;;;;;;;21.91;100.00;64264.59;5050659;28;20263;-80
2023/07/03 07:07:57;;;;;;;14.68;12.75;;;;;;;21.83;100.00;64253.63;5058311;28;20236;-76
2023/07/03 07:10:24;;;;;;;16.35;13.50;;;;;;;21.99;100.00;64278.13;5061536;28;20459;-77
2023/07/03 07:12:51;;;;;;;15.13;13.18;;;;;;;21.98;100.00;64274.50;5054364;28;20206;-77
2023/07/03 07:15:18;;;;;;;17.42;13.85;;;;;;;22.02;100.00;64278.69;5049469;28;20203;-79
2023/07/03 07:17:46;;;;;;;19.30;14.30;;;;;;;22.30;100.00;64310.53;5055215;28;20461;-78
2023/07/03 07:20:13;;;;;;;14.57;12.88;;;;;;;22.55;100.00;64334.63;5046285;28;20198;-77
2023/07/03 07:22:40;;;;;;;14.00;12.57;;;;;;;22.41;98.96;64319.44;5047766;28;20220;-77
2023/07/03 07:25:08;;;;;;;13.75;12.45;;;;;;;22.47;100.00;64328.28;5047228;28;20201;-78
2023/07/03 07:27:35;;;;;;;13.48;12.18;;;;;;;22.57;100.00;64336.69;5050870;28;20229;-78
2023/07/03 07:30:02;;;;;;;15.38;13.00;;;;;;;22.69;100.00;64348.72;5052288;28;20428;-76
2023/07/03 07:32:29;;;;;;;14.85;13.23;;;;;;;22.54;99.94;64330.97;5047224;28;20232;-78
2023/07/03 07:34:58;;;;;;;21.20;13.13;;;;;;;22.74;99.21;64351.38;5047626;28;20205;-76
2023/07/03 07:37:25;;;;;;;13.75;12.35;;;;;;;22.83;97.00;64363.88;5054241;28;20229;-76
2023/07/03 07:39:52;;;;;;;13.63;12.20;;;;;;;22.77;100.00;64357.63;5049839;28;20228;-76
2023/07/03 07:42:19;;;;;;;13.98;12.57;;;;;;;22.77;97.78;64355.03;5052361;28;20616;-76
2023/07/03 07:44:49;;;;;;;12.90;11.63;;;;;;;22.79;94.37;64359.72;5050103;28;20273;-77
2023/07/03 07:47:17;;;;;;;13.63;9.68;;;;;;;22.73;91.71;64350.31;5049596;28;20260;-79
2023/07/03 07:49:44;;;;;;;12.38;11.18;;;;;;;22.97;95.00;64380.59;5050391;28;20197;-76
2023/07/03 07:52:12;;;;;;;12.88;11.23;;;;;;;23.09;96.23;64390.03;5051436;28;20482;-76
2023/07/03 07:54:39;;;;;;;12.38;10.77;;;;;;;23.32;89.97;64414.63;5052723;28;20540;-76
2023/07/03 07:57:06;;;;;;;10.77;9.77;;;;;;;23.40;86.04;64420.41;5055317;28;20276;-77
2023/07/03 07:59:35;;;;;;;11.75;10.65;;;;;;;23.42;89.83;64425.09;5056273;28;20197;-76
2023/07/03 08:02:02;;;;;;;9.57;8.63;;;;;;;23.17;81.54;64398.94;5051005;28;20225;-77
2023/07/03 08:04:29;;;;;;;13.10;9.32;;;;;;;23.52;78.22;64432.44;5057713;28;20205;-78
2023/07/03 08:06:56;;;;;;;9.90;8.82;;;;;;;24.02;73.72;64486.84;5054708;28;20240;-77
2023/07/03 08:09:24;;;;;;;10.63;9.52;;;;;;;24.06;80.46;64496.75;5048013;28;20209;-76
2023/07/03 08:11:54;;;;;;;11.15;9.90;;;;;;;23.81;80.76;64463.31;5054157;28;20225;-78
2023/07/03 08:14:21;;;;;;;11.82;9.25;;;;;;;24.05;75.67;64490.00;5053214;28;20209;-79
2023/07/03 08:16:48;;;;;;;11.48;8.88;;;;;;;23.45;79.24;64428.22;5052545;28;20217;-77
2023/07/03 08:19:15;;;;;;;11.23;10.13;;;;;;;23.15;81.56;64399.44;5050842;28;20192;-77
2023/07/03 08:21:42;;;;;;;10.80;9.65;;;;;;;23.29;81.17;64414.09;5053158;28;20216;-77
2023/07/03 08:24:09;;;;;;;9.48;8.57;;;;;;;23.40;74.29;64425.59;5052289;28;20227;-77
2023/07/03 08:26:37;;;;;;;11.43;9.90;;;;;;;23.38;78.13;64420.38;5045192;28;20213;-78
2023/07/03 08:29:04;;;;;;;14.35;10.15;;;;;;;23.79;80.31;64463.81;5046867;28;20239;-78
2023/07/03 08:31:31;;;;;;;9.98;8.98;;;;;;;24.23;72.99;64509.34;5054230;28;20216;-77
2023/07/03 08:33:58;;;;;;;12.50;9.25;;;;;;;23.97;73.03;64480.03;5060819;28;20208;-78
2023/07/03 08:36:25;;;;;;;10.55;9.27;;;;;;;24.24;78.33;64512.47;5061286;28;20216;-79
2023/07/03 08:38:53;;;;;;;9.98;8.65;;;;;;;24.62;74.68;64552.81;5053545;28;20208;-77
2023/07/03 08:41:21;;;;;;;8.43;7.63;;;;;;;24.90;63.22;64582.13;5058229;28;20300;-79
2023/07/03 08:43:56;;;;;;;8.88;7.95;;;;;;;25.33;62.45;64624.06;5057961;28;20535;-76
2023/07/03 08:46:25;;;;;;;8.52;7.72;;;;;;;24.99;65.44;64585.81;5051464;28;20220;-80
2023/07/03 08:48:55;;;;;;;8.48;7.30;;;;;;;24.57;61.01;64542.34;5059943;28;20227;-77
2023/07/03 08:51:25;;;;;;;9.90;7.53;;;;;;;24.25;64.08;64508.84;5063155;28;20227;-77
2023/07/03 08:53:55;;;;;;;8.00;7.18;;;;;;;24.12;67.91;64500.44;5050913;28;20489;-77
2023/07/03 08:56:23;;;;;;;8.65;7.80;;;;;;;24.01;67.72;64481.13;5058527;28;20593;-75
2023/07/03 08:58:53;;;;;;;9.00;8.20;;;;;;;23.99;69.38;64484.75;5055532;28;20240;-77
2023/07/03 09:01:25;;;;;;;11.90;8.35;;;;;;;24.22;70.10;64510.91;5054479;28;20213;-78
2023/07/03 09:04:08;;;;;;;10.15;8.38;;;;;;;24.44;69.65;64530.81;5054948;28;20209;-80
2023/07/03 09:06:42;;;;;;;8.35;7.63;;;;;;;24.38;67.68;64527.13;5058611;28;20233;-79
2023/07/03 09:09:18;;;;;;;7.65;6.93;;;;;;;24.67;64.16;64557.50;5060970;28;20345;-77
2023/07/03 09:11:53;;;;;;;10.05;7.88;;;;;;;24.87;63.30;64579.00;5055128;28;20347;-81
2023/07/03 09:14:25;;;;;;;8.45;7.65;;;;;;;24.69;61.83;64560.16;5053032;28;20236;-77
2023/07/03 09:16:53;;;;;;;8.32;7.53;;;;;;;24.68;61.74;64556.47;5053002;28;23093;-77
2023/07/03 09:19:23;;;;;;;8.82;7.93;;;;;;;24.87;61.39;64575.84;5054372;28;20242;-78
2023/07/03 09:21:52;;;;;;;8.52;7.25;;;;;;;24.54;62.39;64543.91;5058670;28;20225;-78
2023/07/03 09:24:24;;;;;;;8.65;7.70;;;;;;;24.45;62.01;64535.00;5058816;28;20801;-78
2023/07/03 09:26:58;;;;;;;8.40;7.57;;;;;;;24.84;59.97;64573.25;5056025;28;20220;-78
2023/07/03 09:29:30;;;;;;;8.55;7.82;;;;;;;25.22;58.43;64614.59;5057999;28;20227;-80
2023/07/03 09:31:57;;;;;;;8.85;8.00;;;;;;;25.40;59.35;64628.81;5051248;28;20221;-77
2023/07/03 09:34:24;;;;;;;7.97;7.28;;;;;;;25.78;57.81;64673.31;5059442;28;20228;-78
2023/07/03 09:36:58;;;;;;;8.25;7.45;;;;;;;25.90;57.65;64685.88;5056596;28;20221;-78
2023/07/03 09:39:26;;;;;;;8.30;7.43;;;;;;;26.20;57.69;64717.34;5057925;28;20220;-76
2023/07/03 09:41:54;;;;;;;7.82;7.22;;;;;;;26.25;57.29;64727.81;5052792;28;20236;-79
2023/07/03 09:44:23;;;;;;;8.32;7.30;;;;;;;26.51;58.29;64749.34;5055275;28;20207;-80
2023/07/03 09:46:51;;;;;;;8.27;7.57;;;;;;;26.72;54.93;64771.38;5054511;28;20398;-80
2023/07/03 09:49:24;;;;;;;8.48;7.28;;;;;;;26.28;54.90;64730.97;5056619;28;20236;-78
2023/07/03 09:51:54;;;;;;;7.72;7.07;;;;;;;25.69;56.12;64666.47;5052689;28;20217;-77
2023/07/03 09:54:23;;;;;;;11.98;9.02;;;;;;;25.28;57.97;64615.69;5057108;28;20303;-78
2023/07/03 09:56:50;;;;;;;11.07;7.95;;;;;;;24.96;58.59;64585.81;5056387;28;20525;-77
2023/07/03 09:59:19;;;;;;;8.80;8.00;;;;;;;24.92;58.05;64581.63;5052169;28;20201;-77
2023/07/03 10:01:47;;;;;;;7.47;6.70;;;;;;;25.18;56.25;64610.44;5050946;28;20226;-79
2023/07/03 10:04:17;;;;;;;8.30;7.50;;;;;;;25.45;56.56;64636.13;5052495;28;20201;-77
2023/07/03 10:06:57;;;;;;;8.80;7.90;;;;;;;25.62;56.21;64659.16;5055593;28;20209;-79
2023/07/03 10:09:28;;;;;;;8.30;7.57;;;;;;;25.61;54.47;64656.00;5055100;28;20266;-79
2023/07/03 10:12:02;;;;;;;9.27;7.28;;;;;;;26.00;54.99;64696.91;5055109;28;20217;-79
2023/07/03 10:14:35;;;;;;;8.57;7.78;;;;;;;26.54;53.01;64752.47;5052993;28;20592;-79
2023/07/03 10:17:03;;;;;;;8.75;7.95;;;;;;;26.77;52.15;64774.53;5057481;28;20285;-78
2023/07/03 10:19:34;;;;;;;7.38;6.68;;;;;;;26.98;51.73;64796.56;5052086;28;20197;-80
2023/07/03 10:22:01;;;;;;;7.88;7.13;;;;;;;26.64;51.55;64763.50;5049921;28;20281;-80
2023/07/03 10:24:32;;;;;;;7.97;7.18;;;;;;;26.60;50.90;64754.06;5053046;28;20199;-79
2023/07/03 10:27:01;;;;;;;7.07;6.50;;;;;;;26.90;51.26;64787.66;5063754;28;20217;-79
2023/07/03 10:29:33;;;;;;;7.97;7.00;;;;;;;27.16;50.39;64812.81;5053366;28;20292;-78
2023/07/03 10:32:05;;;;;;;7.88;7.18;;;;;;;27.00;49.41;64800.75;5058095;28;20221;-77
2023/07/03 10:34:40;;;;;;;7.32;6.68;;;;;;;27.22;52.39;64819.13;5050943;28;20201;-78
2023/07/03 10:37:11;;;;;;;10.85;6.88;;;;;;;27.33;50.75;64830.16;5051013;28;20295;-79
2023/07/03 10:39:42;;;;;;;7.57;6.93;;;;;;;26.96;51.55;64797.06;5060622;28;20213;-77
2023/07/03 10:42:19;;;;;;;6.82;6.32;;;;;;;26.90;49.55;64790.78;5053340;28;20224;-80
2023/07/03 10:44:47;;;;;;;6.05;5.50;;;;;;;27.03;46.73;64799.19;5060542;28;20199;-77
2023/07/03 10:47:21;;;;;;;9.90;6.97;;;;;;;27.07;49.15;64806.00;5055322;28;20221;-79
2023/07/03 10:49:50;;;;;;;7.35;6.75;;;;;;;27.33;50.09;64832.25;5049162;28;20465;-78
2023/07/03 10:52:29;;;;;;;7.93;7.22;;;;;;;27.30;49.68;64827.00;5051225;28;20302;-79
2023/07/03 10:55:06;;;;;;;7.40;6.68;;;;;;;27.44;48.73;64846.91;5047946;28;20216;-76
2023/07/03 10:57:39;;;;;;;8.80;8.00;;;;;;;27.86;48.12;64885.78;5059997;28;20232;-79
2023/07/03 11:00:12;;;;;;;12.20;7.10;;;;;;;27.76;48.39;64877.91;5049688;28;20260;-76
2023/07/03 11:02:49;;;;;;;8.55;6.80;;;;;;;27.03;50.23;64804.41;5053207;28;20204;-79
2023/07/03 11:05:26;;;;;;;7.82;7.18;;;;;;;26.68;51.12;64764.56;5049895;28;20193;-78
2023/07/03 11:08:00;;;;;;;8.65;7.20;;;;;;;26.57;51.94;64753.00;5056237;28;20212;-77
2023/07/03 11:10:34;;;;;;;7.60;6.90;;;;;;;26.36;50.73;64731.00;5049532;28;20201;-77
2023/07/03 11:13:06;;;;;;;7.57;6.88;;;;;;;26.77;51.24;64774.00;5061952;28;20247;-79
2023/07/03 11:15:46;;;;;;;7.07;6.47;;;;;;;27.19;50.65;64818.59;5066403;28;20243;-78
2023/07/03 11:18:38;;;;;;;10.38;7.55;;;;;;;27.69;50.40;64870.00;5059792;28;20203;-78
2023/07/03 11:21:13;;;;;;;7.50;6.80;;;;;;;27.92;50.27;64894.19;5049671;28;20338;-77
2023/07/03 11:23:49;;;;;;;9.48;7.30;;;;;;;27.86;49.04;64885.25;5046354;28;20200;-77